createdAt,value
2023-04-09T00:02:19.881Z,60.72
2023-04-09T00:04:46.988Z,60.99
2023-04-09T00:07:14.071Z,61.13
2023-04-09T00:09:40.853Z,61.16
2023-04-09T00:12:07.661Z,61.08
2023-04-09T00:14:34.650Z,61.46
2023-04-09T00:17:01.546Z,61.47
2023-04-09T00:19:28.498Z,61.75
2023-04-09T00:21:55.420Z,61.16
2023-04-09T00:24:22.307Z,61.13
2023-04-09T00:26:49.834Z,61.18
2023-04-09T00:29:16.990Z,61.37
2023-04-09T00:31:44.206Z,61.16
2023-04-09T00:34:11.810Z,61.83
2023-04-09T00:36:38.628Z,61.70
2023-04-09T00:39:05.476Z,61.33
2023-04-09T00:41:32.733Z,61.70
2023-04-09T00:43:59.556Z,61.10
2023-04-09T00:46:26.498Z,61.66
2023-04-09T00:48:53.695Z,61.41
2023-04-09T00:51:20.735Z,61.93
2023-04-09T00:53:48.207Z,61.74
2023-04-09T00:56:16.166Z,61.76
2023-04-09T00:58:43.087Z,61.53
2023-04-09T01:01:09.968Z,61.88
2023-04-09T01:03:37.039Z,61.96
2023-04-09T01:06:23.172Z,62.01
2023-04-09T01:09:15.643Z,61.90
2023-04-09T01:11:45.734Z,62.15
2023-04-09T01:14:19.010Z,62.79
2023-04-09T01:16:48.359Z,62.65
2023-04-09T01:19:24.729Z,62.21
2023-04-09T01:21:53.145Z,62.82
2023-04-09T01:24:29.227Z,62.90
2023-04-09T01:26:59.185Z,63.16
2023-04-09T01:29:33.984Z,63.50
2023-04-09T01:32:02.433Z,63.74
2023-04-09T01:34:30.679Z,62.87
2023-04-09T01:36:58.810Z,62.88
2023-04-09T01:39:26.632Z,62.78
2023-04-09T01:41:53.948Z,62.45
2023-04-09T01:44:20.935Z,62.63
2023-04-09T01:46:48.717Z,63.10
2023-04-09T01:49:16.077Z,63.16
2023-04-09T01:51:43.549Z,63.47
2023-04-09T01:54:10.616Z,63.73
2023-04-09T01:56:44.638Z,62.89
2023-04-09T01:59:12.249Z,63.26
2023-04-09T02:02:00.014Z,63.53
2023-04-09T02:04:39.134Z,63.64
2023-04-09T02:07:24.900Z,63.13
2023-04-09T02:09:53.376Z,63.15
2023-04-09T02:12:21.824Z,63.87
2023-04-09T02:14:51.323Z,63.64
2023-04-09T02:17:18.813Z,63.46
2023-04-09T02:19:46.632Z,63.25
2023-04-09T02:22:14.691Z,62.67
2023-04-09T02:24:41.763Z,63.04
2023-04-09T02:27:08.817Z,64.23
2023-04-09T02:29:36.141Z,63.76
2023-04-09T02:32:03.181Z,64.04
2023-04-09T02:34:30.046Z,64.03
2023-04-09T02:36:56.947Z,64.51
2023-04-09T02:39:23.784Z,63.94
2023-04-09T02:41:50.705Z,64.00
2023-04-09T02:44:17.667Z,63.67
2023-04-09T02:46:45.067Z,64.00
2023-04-09T02:49:12.116Z,64.05
2023-04-09T02:51:38.934Z,64.17
2023-04-09T02:54:05.904Z,64.06
2023-04-09T02:56:33.079Z,64.16
2023-04-09T02:58:59.925Z,64.50
2023-04-09T03:01:26.913Z,64.64
2023-04-09T03:03:54.055Z,65.01
2023-04-09T03:06:21.083Z,64.89
2023-04-09T03:08:47.926Z,65.00
2023-04-09T03:11:14.855Z,65.42
2023-04-09T03:13:41.815Z,65.73
2023-04-09T03:16:10.362Z,65.31
2023-04-09T03:18:37.363Z,65.23
2023-04-09T03:21:10.868Z,65.51
2023-04-09T03:23:45.910Z,65.57
2023-04-09T03:26:12.943Z,65.43
2023-04-09T03:28:46.931Z,65.26
2023-04-09T03:31:14.260Z,65.24
2023-04-09T03:33:43.169Z,65.34
2023-04-09T03:36:11.020Z,65.10
2023-04-09T03:39:01.069Z,65.97
2023-04-09T03:41:34.678Z,65.86
2023-04-09T03:44:05.297Z,65.99
2023-04-09T03:46:45.762Z,66.70
2023-04-09T03:49:16.072Z,66.05
2023-04-09T03:51:44.860Z,67.08
2023-04-09T03:54:12.362Z,66.92
2023-04-09T03:56:40.358Z,66.96
2023-04-09T03:59:10.470Z,67.70
2023-04-09T04:01:40.725Z,67.38
2023-04-09T04:04:07.693Z,67.26
2023-04-09T04:06:51.797Z,67.62
2023-04-09T04:09:39.098Z,67.14
2023-04-09T04:12:11.510Z,68.35
2023-04-09T04:14:49.835Z,67.12
2023-04-09T04:17:32.691Z,66.92
2023-04-09T04:20:01.980Z,66.83
2023-04-09T04:22:33.889Z,67.05
2023-04-09T04:25:01.037Z,66.94
2023-04-09T04:27:31.450Z,66.86
2023-04-09T04:29:59.080Z,66.54
2023-04-09T04:32:37.970Z,67.21
2023-04-09T04:35:09.453Z,66.60
2023-04-09T04:37:37.212Z,67.48
2023-04-09T04:40:05.764Z,67.23
2023-04-09T04:42:37.166Z,67.34
2023-04-09T04:45:10.469Z,67.47
2023-04-09T04:47:48.425Z,67.00
2023-04-09T04:50:15.271Z,66.53
2023-04-09T04:52:56.505Z,66.38
2023-04-09T04:55:28.695Z,66.68
2023-04-09T04:57:56.308Z,66.25
2023-04-09T05:00:26.672Z,65.97
2023-04-09T05:02:55.328Z,66.25
2023-04-09T05:05:26.488Z,65.60
2023-04-09T05:08:16.678Z,65.80
2023-04-09T05:10:44.271Z,65.81
2023-04-09T05:13:13.484Z,65.07
2023-04-09T05:15:41.870Z,64.57
2023-04-09T05:18:09.965Z,64.72
2023-04-09T05:20:37.327Z,64.13
2023-04-09T05:23:10.550Z,64.03
2023-04-09T05:25:43.820Z,63.33
2023-04-09T05:28:19.909Z,62.78
2023-04-09T05:30:52.051Z,62.64
2023-04-09T05:33:20.758Z,61.93
2023-04-09T05:35:47.800Z,61.70
2023-04-09T05:38:14.782Z,61.41
2023-04-09T05:40:45.884Z,60.84
2023-04-09T05:43:13.932Z,60.85
2023-04-09T05:45:43.618Z,60.29
2023-04-09T05:48:10.770Z,59.43
2023-04-09T05:50:51.614Z,59.19
2023-04-09T05:53:40.694Z,58.42
2023-04-09T05:56:15.125Z,58.03
2023-04-09T05:58:49.657Z,58.25
2023-04-09T06:01:17.357Z,58.29
2023-04-09T06:03:44.689Z,57.42
2023-04-09T06:06:11.697Z,57.73
2023-04-09T06:08:38.626Z,57.86
2023-04-09T06:11:09.290Z,57.70
2023-04-09T06:13:36.159Z,57.51
2023-04-09T06:16:06.985Z,56.96
2023-04-09T06:18:34.721Z,56.59
2023-04-09T06:21:02.649Z,55.59
2023-04-09T06:23:29.550Z,55.35
2023-04-09T06:25:56.567Z,55.33
2023-04-09T06:28:23.785Z,54.88
2023-04-09T06:30:54.767Z,55.34
2023-04-09T06:33:21.970Z,54.43
2023-04-09T06:35:49.320Z,54.61
2023-04-09T06:38:16.459Z,54.24
2023-04-09T06:40:44.075Z,54.07
2023-04-09T06:43:11.007Z,54.50
2023-04-09T06:45:49.064Z,53.68
2023-04-09T06:48:16.045Z,53.83
2023-04-09T06:50:43.023Z,53.64
2023-04-09T06:53:10.118Z,53.48
2023-04-09T06:55:37.002Z,54.04
2023-04-09T06:58:03.911Z,53.20
2023-04-09T07:00:31.196Z,53.09
2023-04-09T07:02:58.388Z,52.69
2023-04-09T07:05:25.543Z,51.95
2023-04-09T07:07:52.386Z,52.67
2023-04-09T07:10:19.346Z,51.32
2023-04-09T07:12:46.271Z,51.58
2023-04-09T07:15:13.194Z,51.52
2023-04-09T07:17:40.574Z,51.11
2023-04-09T07:20:07.758Z,51.27
2023-04-09T07:22:36.416Z,51.79
2023-04-09T07:25:03.298Z,50.99
2023-04-09T07:27:30.341Z,51.17
2023-04-09T07:29:58.164Z,50.25
2023-04-09T07:32:26.371Z,49.63
2023-04-09T07:34:53.696Z,49.46
2023-04-09T07:37:20.866Z,49.47
2023-04-09T07:39:48.056Z,49.12
2023-04-09T07:42:14.932Z,48.72
2023-04-09T07:44:41.825Z,49.04
2023-04-09T07:47:09.207Z,48.47
2023-04-09T07:49:37.288Z,47.03
2023-04-09T07:52:04.687Z,47.07
2023-04-09T07:54:32.024Z,46.70
2023-04-09T07:56:59.248Z,46.36
2023-04-09T07:59:27.737Z,46.58
2023-04-09T08:01:54.689Z,47.28
2023-04-09T08:04:22.275Z,47.38
2023-04-09T08:06:52.484Z,47.30
2023-04-09T08:09:19.771Z,47.07
2023-04-09T08:11:47.570Z,46.78
2023-04-09T08:14:15.438Z,46.55
2023-04-09T08:17:01.673Z,46.51
2023-04-09T08:19:28.623Z,46.51
2023-04-09T08:21:55.687Z,46.37
2023-04-09T08:24:22.634Z,46.12
2023-04-09T08:26:49.608Z,46.49
2023-04-09T08:29:16.645Z,46.99
2023-04-09T08:31:44.359Z,46.99
2023-04-09T08:34:12.099Z,47.05
2023-04-09T08:36:39.096Z,46.98
2023-04-09T08:39:06.218Z,46.71
2023-04-09T08:41:34.729Z,47.00
2023-04-09T08:44:02.136Z,46.70
2023-04-09T08:46:29.021Z,46.38
2023-04-09T08:48:56.331Z,46.29
2023-04-09T08:51:24.278Z,44.56
2023-04-09T08:53:58.346Z,44.93
2023-04-09T08:56:26.616Z,44.55
2023-04-09T08:58:54.154Z,44.00
2023-04-09T09:01:29.122Z,42.96
2023-04-09T09:03:59.044Z,42.96
2023-04-09T09:06:32.127Z,43.32
2023-04-09T09:09:06.788Z,43.36
2023-04-09T09:11:34.893Z,43.38
2023-04-09T09:14:03.616Z,43.16
2023-04-09T09:16:49.325Z,43.66
2023-04-09T09:19:25.549Z,42.88
2023-04-09T09:21:59.437Z,42.67
2023-04-09T09:24:45.870Z,42.63
2023-04-09T09:27:31.751Z,42.50
2023-04-09T09:29:59.089Z,42.34
2023-04-09T09:32:29.011Z,42.53
2023-04-09T09:35:06.682Z,43.18
2023-04-09T09:37:33.909Z,43.17
2023-04-09T09:40:01.624Z,43.01
2023-04-09T09:42:29.995Z,43.19
2023-04-09T09:44:57.477Z,42.71
2023-04-09T09:47:25.595Z,42.34
2023-04-09T09:49:52.736Z,42.39
2023-04-09T09:52:23.173Z,42.25
2023-04-09T09:54:52.950Z,42.56
2023-04-09T09:57:20.516Z,42.31
2023-04-09T09:59:51.558Z,41.52
2023-04-09T10:02:23.258Z,42.10
2023-04-09T10:04:53.895Z,42.31
2023-04-09T10:07:21.928Z,42.34
2023-04-09T10:09:53.403Z,42.28
2023-04-09T10:12:23.836Z,41.85
2023-04-09T10:14:52.019Z,42.60
2023-04-09T10:17:19.812Z,42.03
2023-04-09T10:19:49.704Z,41.99
2023-04-09T10:22:19.588Z,41.96
2023-04-09T10:24:47.291Z,41.59
2023-04-09T10:27:16.645Z,41.37
2023-04-09T10:29:45.572Z,41.39
2023-04-09T10:32:13.074Z,41.87
2023-04-09T10:34:40.949Z,42.25
2023-04-09T10:37:09.787Z,42.25
2023-04-09T10:39:39.668Z,41.89
2023-04-09T10:42:12.423Z,42.21
2023-04-09T10:44:41.704Z,42.21
2023-04-09T10:47:09.169Z,41.83
2023-04-09T10:49:44.775Z,42.09
2023-04-09T10:52:13.870Z,42.14
2023-04-09T10:54:45.650Z,41.83
2023-04-09T10:57:13.976Z,41.62
2023-04-09T10:59:42.194Z,41.06
2023-04-09T11:02:13.767Z,41.26
2023-04-09T11:04:57.639Z,41.13
2023-04-09T11:07:25.924Z,40.91
2023-04-09T11:09:53.331Z,40.32
2023-04-09T11:12:20.348Z,40.21
2023-04-09T11:14:47.185Z,39.71
2023-04-09T11:17:14.155Z,39.66
2023-04-09T11:19:41.134Z,39.08
2023-04-09T11:22:08.046Z,38.83
2023-04-09T11:24:44.450Z,38.49
2023-04-09T11:27:21.860Z,38.51
2023-04-09T11:29:49.017Z,38.68
2023-04-09T11:32:15.988Z,37.43
2023-04-09T11:34:42.802Z,37.43
2023-04-09T11:37:14.596Z,36.79
2023-04-09T11:39:43.986Z,36.96
2023-04-09T11:42:14.561Z,36.54
2023-04-09T11:44:41.650Z,37.17
2023-04-09T11:47:09.537Z,36.04
2023-04-09T11:49:36.497Z,36.28
2023-04-09T11:52:04.297Z,36.86
2023-04-09T11:54:34.557Z,36.84
2023-04-09T11:57:01.974Z,37.46
2023-04-09T11:59:28.924Z,37.54
2023-04-09T12:01:57.809Z,37.81
2023-04-09T12:04:25.170Z,38.15
2023-04-09T12:06:57.736Z,38.31
2023-04-09T12:09:25.837Z,38.84
2023-04-09T12:11:52.775Z,38.72
2023-04-09T12:14:21.870Z,38.56
2023-04-09T12:16:52.530Z,38.71
2023-04-09T12:19:20.686Z,39.23
2023-04-09T12:21:50.066Z,39.18
2023-04-09T12:24:17.662Z,39.14
2023-04-09T12:26:47.674Z,38.83
2023-04-09T12:29:34.026Z,38.69
2023-04-09T12:32:01.030Z,39.38
2023-04-09T12:34:27.865Z,38.40
2023-04-09T12:36:54.776Z,38.24
2023-04-09T12:39:21.672Z,38.28
2023-04-09T12:42:07.074Z,38.42
2023-04-09T12:44:33.952Z,38.55
2023-04-09T12:47:04.028Z,38.65
2023-04-09T12:49:51.341Z,38.18
2023-04-09T12:52:25.001Z,38.17
2023-04-09T12:54:52.554Z,37.60
2023-04-09T12:57:19.425Z,37.68
2023-04-09T12:59:46.406Z,37.66
2023-04-09T13:02:34.473Z,37.38
2023-04-09T13:05:24.168Z,36.49
2023-04-09T13:07:51.541Z,36.01
2023-04-09T13:10:38.377Z,36.19
2023-04-09T13:13:25.258Z,36.51
2023-04-09T13:16:00.703Z,36.38
2023-04-09T13:18:47.569Z,36.50
2023-04-09T13:21:18.971Z,37.07
2023-04-09T13:23:46.005Z,37.14
2023-04-09T13:26:12.856Z,37.66
2023-04-09T13:28:56.658Z,37.51
2023-04-09T13:31:23.627Z,37.49
2023-04-09T13:33:50.658Z,38.07
2023-04-09T13:36:17.495Z,38.50
2023-04-09T13:38:44.575Z,38.38
2023-04-09T13:41:36.193Z,38.24
2023-04-09T13:44:21.886Z,39.06
2023-04-09T13:47:07.809Z,38.96
2023-04-09T13:49:53.340Z,39.51
2023-04-09T13:52:38.799Z,38.72
2023-04-09T13:55:24.228Z,38.91
2023-04-09T13:58:28.686Z,38.50
2023-04-09T14:00:55.657Z,38.58
2023-04-09T14:03:22.558Z,38.39
2023-04-09T14:05:49.904Z,38.90
2023-04-09T14:08:16.871Z,38.92
2023-04-09T14:10:43.757Z,38.61
2023-04-09T14:13:12.336Z,38.89
2023-04-09T14:15:39.397Z,38.92
2023-04-09T14:18:06.635Z,38.92
2023-04-09T14:20:35.661Z,39.06
2023-04-09T14:23:02.601Z,39.28
2023-04-09T14:25:29.467Z,39.43
2023-04-09T14:27:57.067Z,39.30
2023-04-09T14:30:24.214Z,40.04
2023-04-09T14:32:51.163Z,40.40
2023-04-09T14:35:18.092Z,40.87
2023-04-09T14:37:47.054Z,41.14
2023-04-09T14:40:14.078Z,41.85
2023-04-09T14:42:41.780Z,43.26
2023-04-09T14:45:08.852Z,43.58
2023-04-09T14:47:35.803Z,43.87
2023-04-09T14:50:02.785Z,43.85
2023-04-09T14:52:30.673Z,43.81
2023-04-09T14:54:57.682Z,43.83
2023-04-09T14:57:24.865Z,43.72
2023-04-09T14:59:51.771Z,43.53
2023-04-09T15:02:18.942Z,42.99
2023-04-09T15:04:46.107Z,43.34
2023-04-09T15:07:13.170Z,43.03
2023-04-09T15:09:40.036Z,43.06
2023-04-09T15:12:08.829Z,43.29
2023-04-09T15:17:23.695Z,43.13
2023-04-09T15:22:38.787Z,43.23
2023-04-09T15:25:15.426Z,43.35
2023-04-09T15:27:44.808Z,43.14
2023-04-09T15:35:46.501Z,42.00
2023-04-09T15:38:15.901Z,41.45
2023-04-09T15:40:47.501Z,41.57
2023-04-09T15:46:01.367Z,41.98
2023-04-09T15:51:18.628Z,42.36
2023-04-09T15:56:37.672Z,43.03
2023-04-09T15:59:19.562Z,43.51
2023-04-09T16:12:49.308Z,43.97
2023-04-09T16:18:09.773Z,44.23
2023-04-09T16:20:40.639Z,44.38
2023-04-09T16:23:09.906Z,44.41
2023-04-09T16:28:23.902Z,44.43
2023-04-09T16:36:21.086Z,45.74
2023-04-09T16:41:35.695Z,47.89
2023-04-09T16:44:07.522Z,48.38
2023-04-09T16:49:24.713Z,48.68
2023-04-09T16:51:56.962Z,48.61
2023-04-09T16:54:25.743Z,48.26
2023-04-09T16:59:40.416Z,49.44
2023-04-09T17:02:14.880Z,48.89
2023-04-09T17:04:45.049Z,48.92
2023-04-09T17:20:50.992Z,50.80
2023-04-09T17:23:26.393Z,51.71
2023-04-09T17:26:01.865Z,51.58
2023-04-09T17:28:31.457Z,50.67
2023-04-09T17:31:03.286Z,50.69
2023-04-09T17:33:35.115Z,51.40
2023-04-09T17:36:11.450Z,50.51
2023-04-09T17:41:32.531Z,51.06
2023-04-09T17:44:00.881Z,50.37
2023-04-09T17:51:52.421Z,51.01
2023-04-09T17:57:06.768Z,50.30
2023-04-09T17:59:40.287Z,50.42
2023-04-09T18:02:13.031Z,50.36
2023-04-09T18:04:44.467Z,50.48
2023-04-09T18:07:13.208Z,50.36
2023-04-09T18:09:47.154Z,50.37
2023-04-09T18:12:15.668Z,50.21
2023-04-09T18:17:30.194Z,50.73
2023-04-09T18:20:06.583Z,49.25
2023-04-09T18:30:45.881Z,48.64
2023-04-09T18:33:12.731Z,49.98
2023-04-09T18:35:39.644Z,47.48
2023-04-09T18:38:06.439Z,47.40
2023-04-09T18:40:39.989Z,47.37
2023-04-09T18:43:06.814Z,48.27
2023-04-09T18:45:33.820Z,48.23
2023-04-09T18:48:00.806Z,48.48
2023-04-09T18:50:28.192Z,47.79
2023-04-09T18:52:55.112Z,48.38
2023-04-09T18:55:21.936Z,48.18
2023-04-09T18:57:54.875Z,48.18
2023-04-09T19:00:21.831Z,47.75
2023-04-09T19:02:49.972Z,48.36
2023-04-09T19:05:17.777Z,47.75
2023-04-09T19:07:44.732Z,47.51
2023-04-09T19:10:13.460Z,47.37
2023-04-09T19:12:47.529Z,48.48
2023-04-09T19:15:17.650Z,47.44
2023-04-09T19:17:45.259Z,47.78
2023-04-09T19:20:12.233Z,47.53
2023-04-09T19:22:39.202Z,47.28
2023-04-09T19:25:07.724Z,47.77
2023-04-09T19:27:34.661Z,47.09
2023-04-09T19:30:01.525Z,47.60
2023-04-09T19:32:28.825Z,46.90
2023-04-09T19:34:56.045Z,47.42
2023-04-09T19:37:27.454Z,47.79
2023-04-09T19:39:54.933Z,47.77
2023-04-09T19:42:21.805Z,47.94
2023-04-09T19:44:48.678Z,47.42
2023-04-09T19:47:15.722Z,47.69
2023-04-09T19:49:42.552Z,48.07
2023-04-09T19:52:09.385Z,47.56
2023-04-09T19:54:36.939Z,48.06
2023-04-09T19:57:05.202Z,48.46
2023-04-09T19:59:36.400Z,48.65
2023-04-09T20:02:03.514Z,47.98
2023-04-09T20:04:31.165Z,48.08
2023-04-09T20:06:58.160Z,48.51
2023-04-09T20:09:26.589Z,48.23
2023-04-09T20:11:54.129Z,48.62
2023-04-09T20:14:21.267Z,48.56
2023-04-09T20:16:48.142Z,48.26
2023-04-09T20:19:15.087Z,48.82
2023-04-09T20:21:43.695Z,48.80
2023-04-09T20:24:10.620Z,48.90
2023-04-09T20:26:37.658Z,48.98
2023-04-09T20:29:04.749Z,49.34
2023-04-09T20:31:31.798Z,49.70
2023-04-09T20:33:58.630Z,48.80
2023-04-09T20:36:25.815Z,49.75
2023-04-09T20:38:53.595Z,49.32
2023-04-09T20:41:20.552Z,49.14
2023-04-09T20:43:47.610Z,49.18
2023-04-09T20:46:14.550Z,49.44
2023-04-09T20:48:41.673Z,49.40
2023-04-09T20:51:10.160Z,49.75
2023-04-09T20:53:37.714Z,49.82
2023-04-09T20:56:06.131Z,49.56
2023-04-09T20:58:33.587Z,50.19
2023-04-09T21:01:05.144Z,50.64
2023-04-09T21:03:32.612Z,50.48
2023-04-09T21:05:59.580Z,50.22
2023-04-09T21:08:26.458Z,49.53
2023-04-09T21:10:53.318Z,49.81
2023-04-09T21:13:20.237Z,49.72
2023-04-09T21:15:47.053Z,48.99
2023-04-09T21:18:14.773Z,49.68
2023-04-09T21:20:49.015Z,49.10
2023-04-09T21:23:16.112Z,48.90
2023-04-09T21:25:43.038Z,49.13
2023-04-09T21:28:09.967Z,48.91
2023-04-09T21:30:38.029Z,48.70
2023-04-09T21:33:06.829Z,49.00
2023-04-09T21:35:33.985Z,48.63
2023-04-09T21:38:02.946Z,48.20
2023-04-09T21:40:30.244Z,48.66
2023-04-09T21:42:57.856Z,48.59
2023-04-09T21:45:24.982Z,48.48
2023-04-09T21:47:52.591Z,48.84
2023-04-09T21:50:19.817Z,47.87
2023-04-09T21:52:49.750Z,48.13
2023-04-09T21:55:16.618Z,48.98
2023-04-09T21:57:43.405Z,48.19
2023-04-09T22:00:11.200Z,48.33
2023-04-09T22:02:39.528Z,48.76
2023-04-09T22:05:06.777Z,48.56
2023-04-09T22:07:33.752Z,47.91
2023-04-09T22:10:00.549Z,48.27
2023-04-09T22:12:27.362Z,47.84
2023-04-09T22:14:54.345Z,47.76
2023-04-09T22:17:21.429Z,47.95
2023-04-09T22:19:48.333Z,47.75
2023-04-09T22:22:15.225Z,48.09
2023-04-09T22:24:42.846Z,47.95
2023-04-09T22:27:09.781Z,47.88
2023-04-09T22:29:37.201Z,48.40
2023-04-09T22:32:04.111Z,48.01
2023-04-09T22:34:30.910Z,47.68
2023-04-09T22:36:58.082Z,48.52
2023-04-09T22:39:25.037Z,47.98
2023-04-09T22:41:52.462Z,47.55
2023-04-09T22:44:19.514Z,48.03
2023-04-09T22:46:46.535Z,47.72
2023-04-09T22:49:13.523Z,48.16
2023-04-09T22:51:41.787Z,48.63
2023-04-09T22:54:09.949Z,48.09
2023-04-09T22:56:37.370Z,48.72
2023-04-09T22:59:04.857Z,48.31
2023-04-09T23:01:32.263Z,48.08
2023-04-09T23:03:59.428Z,48.64
2023-04-09T23:06:26.242Z,49.03
2023-04-09T23:08:53.406Z,48.47
2023-04-09T23:11:21.312Z,48.65
2023-04-09T23:13:49.137Z,48.65
2023-04-09T23:16:16.409Z,48.76
2023-04-09T23:18:43.790Z,48.53
2023-04-09T23:21:10.997Z,49.27
2023-04-09T23:23:39.207Z,49.00
2023-04-09T23:26:06.238Z,48.98
2023-04-09T23:28:35.136Z,49.92
2023-04-09T23:31:02.003Z,49.32
2023-04-09T23:33:28.826Z,49.27
2023-04-09T23:35:55.783Z,49.57
2023-04-09T23:38:22.757Z,49.13
2023-04-09T23:40:49.751Z,48.94
2023-04-09T23:43:16.634Z,48.98
2023-04-09T23:45:43.891Z,49.14
2023-04-09T23:48:11.513Z,48.68
2023-04-09T23:50:39.653Z,48.53
2023-04-09T23:53:06.837Z,48.36
2023-04-09T23:55:38.127Z,48.45
2023-04-09T23:58:05.414Z,48.21
